sensor_id;sensor_type;location;lat;lon;timestamp;temperature;humidity
1976;DHT22;988;48.016;7.800;2023-03-16T00:00:52;4.70;95.30
1976;DHT22;988;48.016;7.800;2023-03-16T00:03:19;4.70;95.90
1976;DHT22;988;48.016;7.800;2023-03-16T00:05:46;4.70;96.00
1976;DHT22;988;48.016;7.800;2023-03-16T00:08:12;4.60;97.10
1976;DHT22;988;48.016;7.800;2023-03-16T00:10:37;4.50;97.90
1976;DHT22;988;48.016;7.800;2023-03-16T00:13:03;4.30;98.60
1976;DHT22;988;48.016;7.800;2023-03-16T00:15:29;4.40;98.60
1976;DHT22;988;48.016;7.800;2023-03-16T00:17:54;4.50;98.60
1976;DHT22;988;48.016;7.800;2023-03-16T00:20:20;4.40;98.80
1976;DHT22;988;48.016;7.800;2023-03-16T00:22:47;4.40;99.50
1976;DHT22;988;48.016;7.800;2023-03-16T00:25:13;4.30;99.50
1976;DHT22;988;48.016;7.800;2023-03-16T00:27:39;4.30;99.80
1976;DHT22;988;48.016;7.800;2023-03-16T00:30:06;4.40;99.70
1976;DHT22;988;48.016;7.800;2023-03-16T00:32:33;4.40;99.40
1976;DHT22;988;48.016;7.800;2023-03-16T00:35:00;4.20;99.40
1976;DHT22;988;48.016;7.800;2023-03-16T00:37:28;4.40;98.80
1976;DHT22;988;48.016;7.800;2023-03-16T00:39:55;4.40;98.70
1976;DHT22;988;48.016;7.800;2023-03-16T00:42:21;4.30;99.00
1976;DHT22;988;48.016;7.800;2023-03-16T00:45:00;4.20;98.70
1976;DHT22;988;48.016;7.800;2023-03-16T00:47:29;3.90;99.90
1976;DHT22;988;48.016;7.800;2023-03-16T00:49:55;4.10;99.90
1976;DHT22;988;48.016;7.800;2023-03-16T00:52:21;4.30;99.20
1976;DHT22;988;48.016;7.800;2023-03-16T00:54:48;4.40;98.70
1976;DHT22;988;48.016;7.800;2023-03-16T00:57:16;4.00;99.30
1976;DHT22;988;48.016;7.800;2023-03-16T00:59:44;4.30;98.60
1976;DHT22;988;48.016;7.800;2023-03-16T01:02:10;4.70;96.80
1976;DHT22;988;48.016;7.800;2023-03-16T01:04:37;4.60;96.90
1976;DHT22;988;48.016;7.800;2023-03-16T01:07:05;4.50;96.40
1976;DHT22;988;48.016;7.800;2023-03-16T01:09:31;4.50;96.50
1976;DHT22;988;48.016;7.800;2023-03-16T01:12:05;4.40;96.10
1976;DHT22;988;48.016;7.800;2023-03-16T01:14:33;4.10;97.80
1976;DHT22;988;48.016;7.800;2023-03-16T01:17:02;4.40;97.50
1976;DHT22;988;48.016;7.800;2023-03-16T01:19:28;4.70;95.60
1976;DHT22;988;48.016;7.800;2023-03-16T01:21:54;4.60;95.50
1976;DHT22;988;48.016;7.800;2023-03-16T01:24:20;4.70;95.30
1976;DHT22;988;48.016;7.800;2023-03-16T01:26:45;4.70;95.20
1976;DHT22;988;48.016;7.800;2023-03-16T01:29:11;4.60;95.40
1976;DHT22;988;48.016;7.800;2023-03-16T01:31:37;4.60;95.30
1976;DHT22;988;48.016;7.800;2023-03-16T01:34:03;4.40;96.30
1976;DHT22;988;48.016;7.800;2023-03-16T01:36:29;4.30;96.50
1976;DHT22;988;48.016;7.800;2023-03-16T01:38:57;4.70;95.40
1976;DHT22;988;48.016;7.800;2023-03-16T01:41:23;4.90;94.80
1976;DHT22;988;48.016;7.800;2023-03-16T01:43:48;4.70;95.20
1976;DHT22;988;48.016;7.800;2023-03-16T01:46:22;4.60;95.10
1976;DHT22;988;48.016;7.800;2023-03-16T01:49:10;4.10;96.00
1976;DHT22;988;48.016;7.800;2023-03-16T01:51:40;3.80;97.60
1976;DHT22;988;48.016;7.800;2023-03-16T01:54:32;3.50;98.90
1976;DHT22;988;48.016;7.800;2023-03-16T01:57:04;3.70;99.00
1976;DHT22;988;48.016;7.800;2023-03-16T01:59:45;3.90;98.30
1976;DHT22;988;48.016;7.800;2023-03-16T02:02:14;3.80;98.70
1976;DHT22;988;48.016;7.800;2023-03-16T02:07:26;3.90;98.30
1976;DHT22;988;48.016;7.800;2023-03-16T02:09:57;3.90;98.50
1976;DHT22;988;48.016;7.800;2023-03-16T02:12:25;4.00;98.70
1976;DHT22;988;48.016;7.800;2023-03-16T02:14:51;3.80;99.20
1976;DHT22;988;48.016;7.800;2023-03-16T02:17:20;3.70;99.10
1976;DHT22;988;48.016;7.800;2023-03-16T02:22:22;4.00;98.20
1976;DHT22;988;48.016;7.800;2023-03-16T02:24:52;4.10;98.40
1976;DHT22;988;48.016;7.800;2023-03-16T02:30:16;3.70;99.90
1976;DHT22;988;48.016;7.800;2023-03-16T02:32:43;3.80;99.90
1976;DHT22;988;48.016;7.800;2023-03-16T02:35:10;3.80;99.90
1976;DHT22;988;48.016;7.800;2023-03-16T02:37:37;4.10;99.90
1976;DHT22;988;48.016;7.800;2023-03-16T02:40:22;4.00;99.90
1976;DHT22;988;48.016;7.800;2023-03-16T02:42:53;3.70;99.90
1976;DHT22;988;48.016;7.800;2023-03-16T02:45:21;3.70;99.90
1976;DHT22;988;48.016;7.800;2023-03-16T02:47:51;3.70;99.90
1976;DHT22;988;48.016;7.800;2023-03-16T02:50:18;3.60;99.90
1976;DHT22;988;48.016;7.800;2023-03-16T02:52:44;3.60;99.90
1976;DHT22;988;48.016;7.800;2023-03-16T02:55:09;3.60;99.90
1976;DHT22;988;48.016;7.800;2023-03-16T02:57:35;3.60;99.90
1976;DHT22;988;48.016;7.800;2023-03-16T03:00:01;3.80;99.90
1976;DHT22;988;48.016;7.800;2023-03-16T03:02:30;3.80;99.90
1976;DHT22;988;48.016;7.800;2023-03-16T03:04:56;3.80;99.90
1976;DHT22;988;48.016;7.800;2023-03-16T03:07:21;3.50;99.90
1976;DHT22;988;48.016;7.800;2023-03-16T03:09:57;3.50;99.90
1976;DHT22;988;48.016;7.800;2023-03-16T03:12:22;3.40;99.90
1976;DHT22;988;48.016;7.800;2023-03-16T03:14:48;3.30;99.90
1976;DHT22;988;48.016;7.800;2023-03-16T03:17:14;3.10;99.90
1976;DHT22;988;48.016;7.800;2023-03-16T03:19:39;3.30;99.90
1976;DHT22;988;48.016;7.800;2023-03-16T03:22:05;3.60;99.90
1976;DHT22;988;48.016;7.800;2023-03-16T03:24:32;3.40;99.90
1976;DHT22;988;48.016;7.800;2023-03-16T03:26:58;3.50;99.90
1976;DHT22;988;48.016;7.800;2023-03-16T03:29:26;3.20;99.90
1976;DHT22;988;48.016;7.800;2023-03-16T03:32:02;3.40;99.90
1976;DHT22;988;48.016;7.800;2023-03-16T03:34:29;3.40;99.90
1976;DHT22;988;48.016;7.800;2023-03-16T03:36:56;3.50;99.90
1976;DHT22;988;48.016;7.800;2023-03-16T03:39:22;3.60;99.90
1976;DHT22;988;48.016;7.800;2023-03-16T03:41:48;3.70;99.90
1976;DHT22;988;48.016;7.800;2023-03-16T03:44:14;3.60;99.90
1976;DHT22;988;48.016;7.800;2023-03-16T03:46:39;3.70;99.90
1976;DHT22;988;48.016;7.800;2023-03-16T03:49:05;3.70;99.90
1976;DHT22;988;48.016;7.800;2023-03-16T03:51:32;3.60;99.90
1976;DHT22;988;48.016;7.800;2023-03-16T03:53:58;3.60;99.40
1976;DHT22;988;48.016;7.800;2023-03-16T03:56:24;3.50;99.90
1976;DHT22;988;48.016;7.800;2023-03-16T03:58:50;3.60;99.90
1976;DHT22;988;48.016;7.800;2023-03-16T04:01:15;3.50;99.90
1976;DHT22;988;48.016;7.800;2023-03-16T04:03:41;3.50;99.90
1976;DHT22;988;48.016;7.800;2023-03-16T04:06:07;3.30;99.70
1976;DHT22;988;48.016;7.800;2023-03-16T04:08:34;3.20;99.90
1976;DHT22;988;48.016;7.800;2023-03-16T04:11:00;3.50;99.90
1976;DHT22;988;48.016;7.800;2023-03-16T04:13:26;3.50;99.90
1976;DHT22;988;48.016;7.800;2023-03-16T04:15:56;3.30;99.90
1976;DHT22;988;48.016;7.800;2023-03-16T04:18:22;3.30;99.90
1976;DHT22;988;48.016;7.800;2023-03-16T04:20:48;3.40;99.90
1976;DHT22;988;48.016;7.800;2023-03-16T04:23:13;3.50;99.90
1976;DHT22;988;48.016;7.800;2023-03-16T04:25:41;3.60;99.90
1976;DHT22;988;48.016;7.800;2023-03-16T04:28:07;3.80;99.70
1976;DHT22;988;48.016;7.800;2023-03-16T04:30:33;3.90;99.40
1976;DHT22;988;48.016;7.800;2023-03-16T04:32:59;4.00;98.50
1976;DHT22;988;48.016;7.800;2023-03-16T04:35:25;4.10;97.90
1976;DHT22;988;48.016;7.800;2023-03-16T04:37:50;3.90;98.50
1976;DHT22;988;48.016;7.800;2023-03-16T04:40:16;3.80;98.80
1976;DHT22;988;48.016;7.800;2023-03-16T04:42:44;3.50;99.30
1976;DHT22;988;48.016;7.800;2023-03-16T04:45:10;3.20;99.90
1976;DHT22;988;48.016;7.800;2023-03-16T04:47:37;3.10;99.90
1976;DHT22;988;48.016;7.800;2023-03-16T04:50:04;3.20;99.90
1976;DHT22;988;48.016;7.800;2023-03-16T04:52:30;3.20;99.90
1976;DHT22;988;48.016;7.800;2023-03-16T04:54:56;3.20;99.90
1976;DHT22;988;48.016;7.800;2023-03-16T04:57:22;3.20;99.90
1976;DHT22;988;48.016;7.800;2023-03-16T04:59:47;3.40;99.90
1976;DHT22;988;48.016;7.800;2023-03-16T05:02:13;3.50;99.90
1976;DHT22;988;48.016;7.800;2023-03-16T05:04:39;3.50;99.90
1976;DHT22;988;48.016;7.800;2023-03-16T05:07:04;3.50;99.90
1976;DHT22;988;48.016;7.800;2023-03-16T05:09:30;3.40;99.90
1976;DHT22;988;48.016;7.800;2023-03-16T05:11:56;3.30;99.90
1976;DHT22;988;48.016;7.800;2023-03-16T05:14:21;3.50;99.90
1976;DHT22;988;48.016;7.800;2023-03-16T05:16:47;3.60;99.90
1976;DHT22;988;48.016;7.800;2023-03-16T05:19:12;3.60;99.90
1976;DHT22;988;48.016;7.800;2023-03-16T05:21:38;3.50;99.90
1976;DHT22;988;48.016;7.800;2023-03-16T05:24:04;3.60;99.90
1976;DHT22;988;48.016;7.800;2023-03-16T05:26:30;3.20;99.90
1976;DHT22;988;48.016;7.800;2023-03-16T05:28:56;3.20;99.90
1976;DHT22;988;48.016;7.800;2023-03-16T05:31:22;3.40;99.90
1976;DHT22;988;48.016;7.800;2023-03-16T05:33:51;3.40;99.90
1976;DHT22;988;48.016;7.800;2023-03-16T05:36:16;3.50;99.90
1976;DHT22;988;48.016;7.800;2023-03-16T05:38:42;3.50;99.90
1976;DHT22;988;48.016;7.800;2023-03-16T05:41:08;3.60;99.90
1976;DHT22;988;48.016;7.800;2023-03-16T05:43:33;3.00;99.90
1976;DHT22;988;48.016;7.800;2023-03-16T05:45:59;2.90;99.90
1976;DHT22;988;48.016;7.800;2023-03-16T05:48:24;3.30;99.90
1976;DHT22;988;48.016;7.800;2023-03-16T05:50:51;3.20;99.90
1976;DHT22;988;48.016;7.800;2023-03-16T05:53:17;3.30;99.90
1976;DHT22;988;48.016;7.800;2023-03-16T05:55:42;3.40;99.90
1976;DHT22;988;48.016;7.800;2023-03-16T05:58:08;3.20;99.90
1976;DHT22;988;48.016;7.800;2023-03-16T06:00:34;3.40;99.90
1976;DHT22;988;48.016;7.800;2023-03-16T06:03:00;3.60;99.90
1976;DHT22;988;48.016;7.800;2023-03-16T06:05:26;3.80;99.90
1976;DHT22;988;48.016;7.800;2023-03-16T06:07:53;3.90;99.90
1976;DHT22;988;48.016;7.800;2023-03-16T06:10:19;3.90;99.90
1976;DHT22;988;48.016;7.800;2023-03-16T06:12:44;3.80;99.90
1976;DHT22;988;48.016;7.800;2023-03-16T06:15:10;3.80;99.90
1976;DHT22;988;48.016;7.800;2023-03-16T06:17:37;3.70;99.90
1976;DHT22;988;48.016;7.800;2023-03-16T06:20:05;4.10;99.90
1976;DHT22;988;48.016;7.800;2023-03-16T06:22:36;4.60;99.90
1976;DHT22;988;48.016;7.800;2023-03-16T06:25:03;4.90;99.40
1976;DHT22;988;48.016;7.800;2023-03-16T06:27:28;5.00;98.20
1976;DHT22;988;48.016;7.800;2023-03-16T06:29:54;4.90;98.50
1976;DHT22;988;48.016;7.800;2023-03-16T06:32:20;5.30;98.80
1976;DHT22;988;48.016;7.800;2023-03-16T06:34:46;5.70;96.70
1976;DHT22;988;48.016;7.800;2023-03-16T06:37:12;5.60;96.90
1976;DHT22;988;48.016;7.800;2023-03-16T06:39:39;5.40;98.20
1976;DHT22;988;48.016;7.800;2023-03-16T06:42:04;5.80;96.80
1976;DHT22;988;48.016;7.800;2023-03-16T06:44:30;6.20;95.50
1976;DHT22;988;48.016;7.800;2023-03-16T06:46:56;6.30;94.80
1976;DHT22;988;48.016;7.800;2023-03-16T06:49:22;6.50;93.50
1976;DHT22;988;48.016;7.800;2023-03-16T06:51:48;6.00;93.50
1976;DHT22;988;48.016;7.800;2023-03-16T06:54:13;5.70;94.30
1976;DHT22;988;48.016;7.800;2023-03-16T06:56:39;5.00;96.20
1976;DHT22;988;48.016;7.800;2023-03-16T06:59:05;5.50;97.10
1976;DHT22;988;48.016;7.800;2023-03-16T07:01:32;6.10;95.50
1976;DHT22;988;48.016;7.800;2023-03-16T07:03:57;6.60;94.70
1976;DHT22;988;48.016;7.800;2023-03-16T07:06:23;6.60;93.10
1976;DHT22;988;48.016;7.800;2023-03-16T07:08:49;6.20;92.40
1976;DHT22;988;48.016;7.800;2023-03-16T07:11:14;6.60;93.00
1976;DHT22;988;48.016;7.800;2023-03-16T07:13:40;7.00;92.00
1976;DHT22;988;48.016;7.800;2023-03-16T07:16:06;7.70;91.00
1976;DHT22;988;48.016;7.800;2023-03-16T07:18:33;8.00;88.90
1976;DHT22;988;48.016;7.800;2023-03-16T07:20:58;8.40;86.90
1976;DHT22;988;48.016;7.800;2023-03-16T07:23:24;8.50;86.80
1976;DHT22;988;48.016;7.800;2023-03-16T07:25:50;8.80;85.00
1976;DHT22;988;48.016;7.800;2023-03-16T07:28:19;9.10;84.30
1976;DHT22;988;48.016;7.800;2023-03-16T07:30:45;9.20;83.20
1976;DHT22;988;48.016;7.800;2023-03-16T07:33:11;9.30;80.90
1976;DHT22;988;48.016;7.800;2023-03-16T07:35:37;9.40;80.20
1976;DHT22;988;48.016;7.800;2023-03-16T07:38:02;9.50;80.00
1976;DHT22;988;48.016;7.800;2023-03-16T07:40:28;9.40;79.40
1976;DHT22;988;48.016;7.800;2023-03-16T07:42:54;9.10;80.10
1976;DHT22;988;48.016;7.800;2023-03-16T07:45:19;9.10;78.70
1976;DHT22;988;48.016;7.800;2023-03-16T07:47:46;9.20;81.50
1976;DHT22;988;48.016;7.800;2023-03-16T07:50:13;9.10;82.10
1976;DHT22;988;48.016;7.800;2023-03-16T07:52:41;9.20;82.00
1976;DHT22;988;48.016;7.800;2023-03-16T07:55:08;9.90;81.00
1976;DHT22;988;48.016;7.800;2023-03-16T07:57:33;11.70;77.20
1976;DHT22;988;48.016;7.800;2023-03-16T07:59:59;15.10;70.20
1976;DHT22;988;48.016;7.800;2023-03-16T08:02:27;18.00;59.30
1976;DHT22;988;48.016;7.800;2023-03-16T08:04:52;19.00;55.10
1976;DHT22;988;48.016;7.800;2023-03-16T08:07:18;21.00;50.60
1976;DHT22;988;48.016;7.800;2023-03-16T08:09:44;22.40;46.80
1976;DHT22;988;48.016;7.800;2023-03-16T08:12:10;22.60;45.10
1976;DHT22;988;48.016;7.800;2023-03-16T08:14:36;23.30;44.30
1976;DHT22;988;48.016;7.800;2023-03-16T08:17:03;24.20;41.90
1976;DHT22;988;48.016;7.800;2023-03-16T08:19:29;25.10;40.80
1976;DHT22;988;48.016;7.800;2023-03-16T08:21:55;25.50;39.60
1976;DHT22;988;48.016;7.800;2023-03-16T08:24:22;26.90;37.70
1976;DHT22;988;48.016;7.800;2023-03-16T08:26:48;27.70;36.50
1976;DHT22;988;48.016;7.800;2023-03-16T08:29:14;28.70;34.90
1976;DHT22;988;48.016;7.800;2023-03-16T08:31:39;28.60;34.20
1976;DHT22;988;48.016;7.800;2023-03-16T08:34:07;28.20;33.70
1976;DHT22;988;48.016;7.800;2023-03-16T08:36:32;27.70;34.10
1976;DHT22;988;48.016;7.800;2023-03-16T08:38:58;27.50;34.80
1976;DHT22;988;48.016;7.800;2023-03-16T08:41:24;27.60;34.70
1976;DHT22;988;48.016;7.800;2023-03-16T08:43:50;25.30;36.70
1976;DHT22;988;48.016;7.800;2023-03-16T08:46:16;22.40;40.30
1976;DHT22;988;48.016;7.800;2023-03-16T08:48:42;24.50;38.60
1976;DHT22;988;48.016;7.800;2023-03-16T08:51:09;25.50;37.10
1976;DHT22;988;48.016;7.800;2023-03-16T08:53:35;24.10;38.80
1976;DHT22;988;48.016;7.800;2023-03-16T08:56:03;25.60;37.20
1976;DHT22;988;48.016;7.800;2023-03-16T08:58:30;26.50;35.50
1976;DHT22;988;48.016;7.800;2023-03-16T09:00:57;24.90;36.70
1976;DHT22;988;48.016;7.800;2023-03-16T09:03:24;23.80;37.10
1976;DHT22;988;48.016;7.800;2023-03-16T09:05:50;25.20;36.60
1976;DHT22;988;48.016;7.800;2023-03-16T09:08:17;27.50;33.80
1976;DHT22;988;48.016;7.800;2023-03-16T09:10:42;27.30;33.40
1976;DHT22;988;48.016;7.800;2023-03-16T09:13:09;28.50;32.80
1976;DHT22;988;48.016;7.800;2023-03-16T09:15:35;30.30;31.10
1976;DHT22;988;48.016;7.800;2023-03-16T09:18:02;32.10;29.90
1976;DHT22;988;48.016;7.800;2023-03-16T09:20:28;32.80;29.00
1976;DHT22;988;48.016;7.800;2023-03-16T09:22:54;32.80;28.90
1976;DHT22;988;48.016;7.800;2023-03-16T09:25:20;31.90;28.80
1976;DHT22;988;48.016;7.800;2023-03-16T09:27:46;31.00;29.70
1976;DHT22;988;48.016;7.800;2023-03-16T09:30:12;31.00;29.50
1976;DHT22;988;48.016;7.800;2023-03-16T09:32:38;32.00;28.70
1976;DHT22;988;48.016;7.800;2023-03-16T09:35:05;30.10;29.60
1976;DHT22;988;48.016;7.800;2023-03-16T09:37:31;28.20;30.90
1976;DHT22;988;48.016;7.800;2023-03-16T09:39:57;29.10;30.00
1976;DHT22;988;48.016;7.800;2023-03-16T09:47:48;31.90;29.10
1976;DHT22;988;48.016;7.800;2023-03-16T09:50:26;33.00;28.10
1976;DHT22;988;48.016;7.800;2023-03-16T09:55:24;30.20;29.80
1976;DHT22;988;48.016;7.800;2023-03-16T09:57:52;28.80;30.30
1976;DHT22;988;48.016;7.800;2023-03-16T10:00:23;28.70;31.50
1976;DHT22;988;48.016;7.800;2023-03-16T10:03:15;28.50;30.00
1976;DHT22;988;48.016;7.800;2023-03-16T10:05:46;30.00;28.80
1976;DHT22;988;48.016;7.800;2023-03-16T10:08:23;30.90;28.40
1976;DHT22;988;48.016;7.800;2023-03-16T10:10:55;31.70;27.60
1976;DHT22;988;48.016;7.800;2023-03-16T10:13:53;28.90;29.50
1976;DHT22;988;48.016;7.800;2023-03-16T10:19:11;30.60;29.00
1976;DHT22;988;48.016;7.800;2023-03-16T10:21:39;29.40;30.00
1976;DHT22;988;48.016;7.800;2023-03-16T10:27:05;27.00;31.60
1976;DHT22;988;48.016;7.800;2023-03-16T10:29:34;26.80;32.10
1976;DHT22;988;48.016;7.800;2023-03-16T10:32:12;26.90;31.50
1976;DHT22;988;48.016;7.800;2023-03-16T10:34:38;28.70;31.10
1976;DHT22;988;48.016;7.800;2023-03-16T10:37:04;29.50;30.70
1976;DHT22;988;48.016;7.800;2023-03-16T10:39:35;32.50;28.90
1976;DHT22;988;48.016;7.800;2023-03-16T10:42:13;34.50;27.80
1976;DHT22;988;48.016;7.800;2023-03-16T10:44:41;37.20;25.80
1976;DHT22;988;48.016;7.800;2023-03-16T10:47:07;37.90;24.90
1976;DHT22;988;48.016;7.800;2023-03-16T10:49:43;38.80;24.30
1976;DHT22;988;48.016;7.800;2023-03-16T10:54:56;39.30;23.60
1976;DHT22;988;48.016;7.800;2023-03-16T10:57:33;41.40;23.10
1976;DHT22;988;48.016;7.800;2023-03-16T11:02:37;39.00;22.80
1976;DHT22;988;48.016;7.800;2023-03-16T11:05:33;37.90;23.50
1976;DHT22;988;48.016;7.800;2023-03-16T11:08:07;39.00;23.20
1976;DHT22;988;48.016;7.800;2023-03-16T11:10:40;40.20;22.50
1976;DHT22;988;48.016;7.800;2023-03-16T11:13:15;41.20;22.00
1976;DHT22;988;48.016;7.800;2023-03-16T11:18:36;41.00;22.20
1976;DHT22;988;48.016;7.800;2023-03-16T11:21:18;40.90;22.20
1976;DHT22;988;48.016;7.800;2023-03-16T11:23:50;41.50;21.90
1976;DHT22;988;48.016;7.800;2023-03-16T11:26:23;40.40;22.10
1976;DHT22;988;48.016;7.800;2023-03-16T11:29:00;37.90;24.00
1976;DHT22;988;48.016;7.800;2023-03-16T11:34:17;40.10;22.90
1976;DHT22;988;48.016;7.800;2023-03-16T11:36:53;39.30;22.90
1976;DHT22;988;48.016;7.800;2023-03-16T11:39:26;39.40;22.30
1976;DHT22;988;48.016;7.800;2023-03-16T11:42:03;40.10;22.80
1976;DHT22;988;48.016;7.800;2023-03-16T11:44:47;40.30;22.00
1976;DHT22;988;48.016;7.800;2023-03-16T11:50:17;41.30;21.50
1976;DHT22;988;48.016;7.800;2023-03-16T11:52:57;41.80;21.00
1976;DHT22;988;48.016;7.800;2023-03-16T11:55:30;43.10;20.60
1976;DHT22;988;48.016;7.800;2023-03-16T12:06:34;43.70;19.90
1976;DHT22;988;48.016;7.800;2023-03-16T12:09:22;43.80;19.70
1976;DHT22;988;48.016;7.800;2023-03-16T12:14:38;42.90;20.30
1976;DHT22;988;48.016;7.800;2023-03-16T12:17:14;41.80;20.60
1976;DHT22;988;48.016;7.800;2023-03-16T12:20:02;41.40;20.80
1976;DHT22;988;48.016;7.800;2023-03-16T12:22:49;41.00;21.30
1976;DHT22;988;48.016;7.800;2023-03-16T12:25:24;42.20;20.50
1976;DHT22;988;48.016;7.800;2023-03-16T12:27:53;42.60;20.60
1976;DHT22;988;48.016;7.800;2023-03-16T12:32:59;42.70;20.80
1976;DHT22;988;48.016;7.800;2023-03-16T12:44:55;42.50;20.20
1976;DHT22;988;48.016;7.800;2023-03-16T12:47:08;42.30;20.40
1976;DHT22;988;48.016;7.800;2023-03-16T12:49:38;41.60;20.70
1976;DHT22;988;48.016;7.800;2023-03-16T12:52:06;41.00;20.60
1976;DHT22;988;48.016;7.800;2023-03-16T12:54:33;40.40;21.10
1976;DHT22;988;48.016;7.800;2023-03-16T12:57:04;38.20;21.90
1976;DHT22;988;48.016;7.800;2023-03-16T12:59:41;37.30;22.30
1976;DHT22;988;48.016;7.800;2023-03-16T13:02:16;38.40;22.00
1976;DHT22;988;48.016;7.800;2023-03-16T13:04:45;38.50;21.80
1976;DHT22;988;48.016;7.800;2023-03-16T13:07:19;36.80;22.60
1976;DHT22;988;48.016;7.800;2023-03-16T13:09:51;37.20;22.20
1976;DHT22;988;48.016;7.800;2023-03-16T13:12:32;38.70;21.60
1976;DHT22;988;48.016;7.800;2023-03-16T13:15:02;39.60;21.20
1976;DHT22;988;48.016;7.800;2023-03-16T13:17:41;37.80;21.80
1976;DHT22;988;48.016;7.800;2023-03-16T13:22:49;36.80;22.10
1976;DHT22;988;48.016;7.800;2023-03-16T13:25:44;37.40;22.40
1976;DHT22;988;48.016;7.800;2023-03-16T13:28:13;37.90;21.90
1976;DHT22;988;48.016;7.800;2023-03-16T13:30:47;36.50;22.30
1976;DHT22;988;48.016;7.800;2023-03-16T13:33:27;35.90;22.60
1976;DHT22;988;48.016;7.800;2023-03-16T13:35:56;34.70;23.00
1976;DHT22;988;48.016;7.800;2023-03-16T13:38:23;34.60;23.60
1976;DHT22;988;48.016;7.800;2023-03-16T13:41:00;36.30;23.00
1976;DHT22;988;48.016;7.800;2023-03-16T13:43:29;37.60;21.80
1976;DHT22;988;48.016;7.800;2023-03-16T13:45:57;38.30;21.80
1976;DHT22;988;48.016;7.800;2023-03-16T13:48:23;37.80;22.80
1976;DHT22;988;48.016;7.800;2023-03-16T13:50:51;38.40;21.70
1976;DHT22;988;48.016;7.800;2023-03-16T13:53:26;38.90;21.60
1976;DHT22;988;48.016;7.800;2023-03-16T13:55:57;37.70;21.80
1976;DHT22;988;48.016;7.800;2023-03-16T13:58:31;36.60;21.90
1976;DHT22;988;48.016;7.800;2023-03-16T14:01:00;35.10;23.00
1976;DHT22;988;48.016;7.800;2023-03-16T14:03:38;34.80;24.10
1976;DHT22;988;48.016;7.800;2023-03-16T14:08:51;33.70;24.70
1976;DHT22;988;48.016;7.800;2023-03-16T14:11:18;35.40;23.70
1976;DHT22;988;48.016;7.800;2023-03-16T14:13:53;36.80;22.70
1976;DHT22;988;48.016;7.800;2023-03-16T14:16:21;37.30;22.50
1976;DHT22;988;48.016;7.800;2023-03-16T14:19:02;36.70;22.70
1976;DHT22;988;48.016;7.800;2023-03-16T14:21:31;34.40;24.30
1976;DHT22;988;48.016;7.800;2023-03-16T14:24:00;34.40;24.40
1976;DHT22;988;48.016;7.800;2023-03-16T14:26:27;33.70;25.10
1976;DHT22;988;48.016;7.800;2023-03-16T14:29:24;31.80;26.50
1976;DHT22;988;48.016;7.800;2023-03-16T14:31:50;31.60;26.00
1976;DHT22;988;48.016;7.800;2023-03-16T14:34:35;31.60;25.60
1976;DHT22;988;48.016;7.800;2023-03-16T14:37:11;32.10;25.20
1976;DHT22;988;48.016;7.800;2023-03-16T14:39:38;32.20;24.90
1976;DHT22;988;48.016;7.800;2023-03-16T14:42:10;31.70;25.40
1976;DHT22;988;48.016;7.800;2023-03-16T14:44:38;30.90;26.00
1976;DHT22;988;48.016;7.800;2023-03-16T14:47:05;29.50;27.50
1976;DHT22;988;48.016;7.800;2023-03-16T14:49:33;28.80;27.40
1976;DHT22;988;48.016;7.800;2023-03-16T14:52:02;27.60;28.20
1976;DHT22;988;48.016;7.800;2023-03-16T14:54:29;26.40;29.40
1976;DHT22;988;48.016;7.800;2023-03-16T14:57:00;25.40;30.10
1976;DHT22;988;48.016;7.800;2023-03-16T14:59:26;24.50;31.40
1976;DHT22;988;48.016;7.800;2023-03-16T15:01:52;23.50;32.20
1976;DHT22;988;48.016;7.800;2023-03-16T15:04:37;22.80;34.30
1976;DHT22;988;48.016;7.800;2023-03-16T15:07:38;22.60;33.80
1976;DHT22;988;48.016;7.800;2023-03-16T15:12:39;22.00;36.60
1976;DHT22;988;48.016;7.800;2023-03-16T15:15:14;21.80;36.80
1976;DHT22;988;48.016;7.800;2023-03-16T15:17:41;21.30;36.80
1976;DHT22;988;48.016;7.800;2023-03-16T15:20:10;20.80;38.30
1976;DHT22;988;48.016;7.800;2023-03-16T15:22:37;20.40;38.30
1976;DHT22;988;48.016;7.800;2023-03-16T15:25:23;20.40;38.70
1976;DHT22;988;48.016;7.800;2023-03-16T15:27:51;19.60;39.90
1976;DHT22;988;48.016;7.800;2023-03-16T15:30:23;19.60;40.40
1976;DHT22;988;48.016;7.800;2023-03-16T15:32:50;19.10;40.50
1976;DHT22;988;48.016;7.800;2023-03-16T15:35:15;19.10;40.60
1976;DHT22;988;48.016;7.800;2023-03-16T15:37:41;19.10;40.40
1976;DHT22;988;48.016;7.800;2023-03-16T15:40:23;19.00;42.40
1976;DHT22;988;48.016;7.800;2023-03-16T15:42:49;19.00;40.50
1976;DHT22;988;48.016;7.800;2023-03-16T15:45:17;18.90;40.20
1976;DHT22;988;48.016;7.800;2023-03-16T15:47:49;18.70;40.30
1976;DHT22;988;48.016;7.800;2023-03-16T15:50:16;18.60;40.90
1976;DHT22;988;48.016;7.800;2023-03-16T15:52:49;18.60;41.70
1976;DHT22;988;48.016;7.800;2023-03-16T15:55:22;18.40;41.50
1976;DHT22;988;48.016;7.800;2023-03-16T15:57:53;18.30;42.60
1976;DHT22;988;48.016;7.800;2023-03-16T16:00:31;18.60;40.90
1976;DHT22;988;48.016;7.800;2023-03-16T16:03:00;17.70;42.90
1976;DHT22;988;48.016;7.800;2023-03-16T16:05:26;17.20;42.80
1976;DHT22;988;48.016;7.800;2023-03-16T16:07:53;17.20;44.90
1976;DHT22;988;48.016;7.800;2023-03-16T16:10:19;17.50;42.70
1976;DHT22;988;48.016;7.800;2023-03-16T16:12:46;17.50;44.30
1976;DHT22;988;48.016;7.800;2023-03-16T16:15:21;17.70;43.00
1976;DHT22;988;48.016;7.800;2023-03-16T16:17:50;18.00;43.20
1976;DHT22;988;48.016;7.800;2023-03-16T16:20:36;18.00;42.40
1976;DHT22;988;48.016;7.800;2023-03-16T16:23:02;17.70;41.40
1976;DHT22;988;48.016;7.800;2023-03-16T16:25:33;17.40;41.30
1976;DHT22;988;48.016;7.800;2023-03-16T16:28:00;17.70;41.20
1976;DHT22;988;48.016;7.800;2023-03-16T16:30:29;16.80;42.60
1976;DHT22;988;48.016;7.800;2023-03-16T16:32:56;16.80;41.90
1976;DHT22;988;48.016;7.800;2023-03-16T16:35:25;16.60;43.50
1976;DHT22;988;48.016;7.800;2023-03-16T16:37:51;17.00;43.30
1976;DHT22;988;48.016;7.800;2023-03-16T16:40:19;17.50;42.20
1976;DHT22;988;48.016;7.800;2023-03-16T16:42:47;17.60;41.90
1976;DHT22;988;48.016;7.800;2023-03-16T16:45:24;17.70;41.70
1976;DHT22;988;48.016;7.800;2023-03-16T16:47:52;17.50;42.50
1976;DHT22;988;48.016;7.800;2023-03-16T16:50:26;17.00;43.00
1976;DHT22;988;48.016;7.800;2023-03-16T16:52:53;17.10;42.30
1976;DHT22;988;48.016;7.800;2023-03-16T16:55:23;17.10;42.60
1976;DHT22;988;48.016;7.800;2023-03-16T16:57:52;17.30;42.90
1976;DHT22;988;48.016;7.800;2023-03-16T17:00:24;17.10;42.90
1976;DHT22;988;48.016;7.800;2023-03-16T17:02:51;17.10;43.30
1976;DHT22;988;48.016;7.800;2023-03-16T17:05:26;17.10;44.00
1976;DHT22;988;48.016;7.800;2023-03-16T17:07:52;17.30;44.10
1976;DHT22;988;48.016;7.800;2023-03-16T17:10:21;17.30;43.30
1976;DHT22;988;48.016;7.800;2023-03-16T17:12:51;17.40;42.50
1976;DHT22;988;48.016;7.800;2023-03-16T17:15:25;17.60;41.90
1976;DHT22;988;48.016;7.800;2023-03-16T17:18:05;17.50;43.30
1976;DHT22;988;48.016;7.800;2023-03-16T17:20:33;17.30;44.30
1976;DHT22;988;48.016;7.800;2023-03-16T17:22:59;17.00;44.20
1976;DHT22;988;48.016;7.800;2023-03-16T17:25:25;16.90;44.00
1976;DHT22;988;48.016;7.800;2023-03-16T17:27:52;16.50;44.80
1976;DHT22;988;48.016;7.800;2023-03-16T17:30:28;16.30;45.50
1976;DHT22;988;48.016;7.800;2023-03-16T17:32:59;16.20;45.90
1976;DHT22;988;48.016;7.800;2023-03-16T17:35:25;16.20;45.50
1976;DHT22;988;48.016;7.800;2023-03-16T17:37:51;16.30;45.40
1976;DHT22;988;48.016;7.800;2023-03-16T17:40:20;16.10;46.10
1976;DHT22;988;48.016;7.800;2023-03-16T17:42:47;15.80;46.70
1976;DHT22;988;48.016;7.800;2023-03-16T17:45:19;15.70;46.90